sensor_id;sensor_type;location;lat;lon;timestamp;pressure;altitude;pressure_sealevel;temperature;humidity
8637;BME280;4356;49.068;8.658;2023-03-16T00:01:16;100317.59;;;16.16;35.98
8637;BME280;4356;49.068;8.658;2023-03-16T00:03:42;100326.81;;;16.22;35.83
8637;BME280;4356;49.068;8.658;2023-03-16T00:06:08;100338.09;;;16.25;36.17
8637;BME280;4356;49.068;8.658;2023-03-16T00:08:34;100328.72;;;16.21;36.22
8637;BME280;4356;49.068;8.658;2023-03-16T00:11:00;100317.16;;;16.13;35.99
8637;BME280;4356;49.068;8.658;2023-03-16T00:13:27;100328.72;;;16.21;35.98
8637;BME280;4356;49.068;8.658;2023-03-16T00:15:55;100335.59;;;16.24;36.10
8637;BME280;4356;49.068;8.658;2023-03-16T00:18:23;100332.44;;;16.20;36.18
8637;BME280;4356;49.068;8.658;2023-03-16T00:20:58;100348.72;;;16.20;36.17
8637;BME280;4356;49.068;8.658;2023-03-16T00:23:27;100345.34;;;16.18;36.16
8637;BME280;4356;49.068;8.658;2023-03-16T00:25:55;100340.34;;;16.15;36.19
8637;BME280;4356;49.068;8.658;2023-03-16T00:28:21;100338.19;;;16.11;36.19
8637;BME280;4356;49.068;8.658;2023-03-16T00:30:47;100346.78;;;16.14;36.07
8637;BME280;4356;49.068;8.658;2023-03-16T00:33:13;100360.78;;;16.18;36.19
8637;BME280;4356;49.068;8.658;2023-03-16T00:35:39;100348.22;;;16.10;36.31
8637;BME280;4356;49.068;8.658;2023-03-16T00:38:16;100347.81;;;16.13;35.96
8637;BME280;4356;49.068;8.658;2023-03-16T00:40:42;100340.75;;;16.12;36.25
8637;BME280;4356;49.068;8.658;2023-03-16T00:43:08;100341.56;;;16.13;36.13
8637;BME280;4356;49.068;8.658;2023-03-16T00:45:34;100331.13;;;16.10;36.46
8637;BME280;4356;49.068;8.658;2023-03-16T00:48:00;100327.50;;;16.03;36.59
8637;BME280;4356;49.068;8.658;2023-03-16T00:50:26;100342.81;;;16.10;36.34
8637;BME280;4356;49.068;8.658;2023-03-16T00:52:52;100335.88;;;16.08;36.41
8637;BME280;4356;49.068;8.658;2023-03-16T00:55:18;100329.81;;;16.06;36.22
8637;BME280;4356;49.068;8.658;2023-03-16T00:57:44;100336.94;;;16.07;36.12
8637;BME280;4356;49.068;8.658;2023-03-16T01:00:11;100330.03;;;16.04;36.35
8637;BME280;4356;49.068;8.658;2023-03-16T01:02:39;100324.81;;;16.03;36.20
8637;BME280;4356;49.068;8.658;2023-03-16T01:05:06;100328.16;;;16.05;36.55
8637;BME280;4356;49.068;8.658;2023-03-16T01:07:33;100318.53;;;16.02;36.16
8637;BME280;4356;49.068;8.658;2023-03-16T01:10:01;100319.38;;;16.03;36.52
8637;BME280;4356;49.068;8.658;2023-03-16T01:12:27;100325.00;;;16.01;36.48
8637;BME280;4356;49.068;8.658;2023-03-16T01:14:52;100311.16;;;15.96;36.43
8637;BME280;4356;49.068;8.658;2023-03-16T01:17:20;100316.88;;;16.01;36.28
8637;BME280;4356;49.068;8.658;2023-03-16T01:19:47;100312.88;;;15.97;36.36
8637;BME280;4356;49.068;8.658;2023-03-16T01:22:14;100307.81;;;15.94;36.20
8637;BME280;4356;49.068;8.658;2023-03-16T01:24:41;100303.00;;;15.90;36.26
8637;BME280;4356;49.068;8.658;2023-03-16T01:27:09;100309.50;;;15.95;35.90
8637;BME280;4356;49.068;8.658;2023-03-16T01:29:35;100314.94;;;15.95;36.04
8637;BME280;4356;49.068;8.658;2023-03-16T01:32:01;100307.66;;;15.96;35.92
8637;BME280;4356;49.068;8.658;2023-03-16T01:34:28;100310.34;;;15.96;35.91
8637;BME280;4356;49.068;8.658;2023-03-16T01:36:54;100310.53;;;15.94;35.66
8637;BME280;4356;49.068;8.658;2023-03-16T01:39:20;100300.72;;;15.93;35.97
8637;BME280;4356;49.068;8.658;2023-03-16T01:41:46;100299.69;;;15.94;36.15
8637;BME280;4356;49.068;8.658;2023-03-16T01:44:21;100297.81;;;15.95;36.13
8637;BME280;4356;49.068;8.658;2023-03-16T01:46:49;100287.38;;;15.92;35.74
8637;BME280;4356;49.068;8.658;2023-03-16T01:51:55;100287.19;;;15.93;35.78
8637;BME280;4356;49.068;8.658;2023-03-16T01:54:34;100284.03;;;15.90;35.99
8637;BME280;4356;49.068;8.658;2023-03-16T01:59:32;100289.84;;;15.87;35.87
8637;BME280;4356;49.068;8.658;2023-03-16T02:01:59;100270.75;;;15.74;35.99
8637;BME280;4356;49.068;8.658;2023-03-16T02:05:03;100297.56;;;15.90;35.70
8637;BME280;4356;49.068;8.658;2023-03-16T02:07:35;100296.94;;;15.88;35.99
8637;BME280;4356;49.068;8.658;2023-03-16T02:10:04;100299.00;;;15.86;36.15
8637;BME280;4356;49.068;8.658;2023-03-16T02:12:30;100290.41;;;15.82;36.13
8637;BME280;4356;49.068;8.658;2023-03-16T02:14:56;100289.00;;;15.86;36.02
8637;BME280;4356;49.068;8.658;2023-03-16T02:17:27;100285.63;;;15.84;36.03
8637;BME280;4356;49.068;8.658;2023-03-16T02:22:44;100274.34;;;15.81;35.95
8637;BME280;4356;49.068;8.658;2023-03-16T02:25:12;100270.78;;;15.80;35.94
8637;BME280;4356;49.068;8.658;2023-03-16T02:30:14;100263.50;;;15.81;36.00
8637;BME280;4356;49.068;8.658;2023-03-16T02:32:41;100252.22;;;15.77;35.94
8637;BME280;4356;49.068;8.658;2023-03-16T02:35:08;100256.81;;;15.77;35.75
8637;BME280;4356;49.068;8.658;2023-03-16T02:37:35;100269.13;;;15.79;35.84
8637;BME280;4356;49.068;8.658;2023-03-16T02:40:01;100269.34;;;15.78;35.89
8637;BME280;4356;49.068;8.658;2023-03-16T02:42:34;100264.28;;;15.75;36.18
8637;BME280;4356;49.068;8.658;2023-03-16T02:45:00;100249.28;;;15.72;36.08
8637;BME280;4356;49.068;8.658;2023-03-16T02:47:39;100258.66;;;15.76;35.93
8637;BME280;4356;49.068;8.658;2023-03-16T02:50:11;100250.75;;;15.75;36.24
8637;BME280;4356;49.068;8.658;2023-03-16T02:52:38;100261.56;;;15.75;35.78
8637;BME280;4356;49.068;8.658;2023-03-16T02:55:05;100261.56;;;15.75;36.03
8637;BME280;4356;49.068;8.658;2023-03-16T02:57:31;100261.97;;;15.72;35.92
8637;BME280;4356;49.068;8.658;2023-03-16T02:59:57;100258.41;;;15.71;35.95
8637;BME280;4356;49.068;8.658;2023-03-16T03:02:23;100261.97;;;15.72;36.05
8637;BME280;4356;49.068;8.658;2023-03-16T03:04:49;100263.84;;;15.71;36.55
8637;BME280;4356;49.068;8.658;2023-03-16T03:07:15;100255.06;;;15.69;36.63
8637;BME280;4356;49.068;8.658;2023-03-16T03:09:41;100253.19;;;15.70;36.68
8637;BME280;4356;49.068;8.658;2023-03-16T03:12:08;100253.41;;;15.68;36.74
8637;BME280;4356;49.068;8.658;2023-03-16T03:14:35;100242.31;;;15.63;36.66
8637;BME280;4356;49.068;8.658;2023-03-16T03:17:08;100237.28;;;15.60;36.81
8637;BME280;4356;49.068;8.658;2023-03-16T03:19:35;100250.03;;;15.66;36.88
8637;BME280;4356;49.068;8.658;2023-03-16T03:22:02;100244.63;;;15.66;36.80
8637;BME280;4356;49.068;8.658;2023-03-16T03:24:32;100249.19;;;15.66;36.71
8637;BME280;4356;49.068;8.658;2023-03-16T03:26:58;100240.63;;;15.62;36.60
8637;BME280;4356;49.068;8.658;2023-03-16T03:29:31;100219.16;;;15.61;36.60
8637;BME280;4356;49.068;8.658;2023-03-16T03:32:02;100224.78;;;15.59;36.46
8637;BME280;4356;49.068;8.658;2023-03-16T03:34:29;100227.94;;;15.63;36.49
8637;BME280;4356;49.068;8.658;2023-03-16T03:36:56;100215.44;;;15.62;36.54
8637;BME280;4356;49.068;8.658;2023-03-16T03:39:22;100218.50;;;15.59;36.65
8637;BME280;4356;49.068;8.658;2023-03-16T03:41:48;100217.66;;;15.58;36.61
8637;BME280;4356;49.068;8.658;2023-03-16T03:44:14;100228.13;;;15.61;36.60
8637;BME280;4356;49.068;8.658;2023-03-16T03:46:39;100206.13;;;15.50;36.63
8637;BME280;4356;49.068;8.658;2023-03-16T03:49:05;100205.28;;;15.49;36.95
8637;BME280;4356;49.068;8.658;2023-03-16T03:51:31;100223.94;;;15.59;36.71
8637;BME280;4356;49.068;8.658;2023-03-16T03:53:58;100221.88;;;15.61;36.46
8637;BME280;4356;49.068;8.658;2023-03-16T03:56:24;100214.94;;;15.58;36.56
8637;BME280;4356;49.068;8.658;2023-03-16T03:58:50;100216.84;;;15.58;36.61
8637;BME280;4356;49.068;8.658;2023-03-16T04:01:16;100213.69;;;15.54;36.56
8637;BME280;4356;49.068;8.658;2023-03-16T04:03:42;100217.84;;;15.57;36.69
8637;BME280;4356;49.068;8.658;2023-03-16T04:06:08;100209.28;;;15.53;36.38
8637;BME280;4356;49.068;8.658;2023-03-16T04:08:34;100190.69;;;15.43;36.75
8637;BME280;4356;49.068;8.658;2023-03-16T04:10:59;100205.16;;;15.57;36.33
8637;BME280;4356;49.068;8.658;2023-03-16T04:13:25;100207.03;;;15.57;36.46
8637;BME280;4356;49.068;8.658;2023-03-16T04:15:59;100200.16;;;15.54;36.34
8637;BME280;4356;49.068;8.658;2023-03-16T04:18:27;100206.22;;;15.56;36.53
8637;BME280;4356;49.068;8.658;2023-03-16T04:20:53;100197.00;;;15.51;36.50
8637;BME280;4356;49.068;8.658;2023-03-16T04:23:19;100191.56;;;15.51;36.35
8637;BME280;4356;49.068;8.658;2023-03-16T04:25:45;100197.81;;;15.51;36.57
8637;BME280;4356;49.068;8.658;2023-03-16T04:28:12;100206.38;;;15.55;36.68
8637;BME280;4356;49.068;8.658;2023-03-16T04:30:38;100194.94;;;15.53;36.58
8637;BME280;4356;49.068;8.658;2023-03-16T04:33:03;100183.19;;;15.45;36.50
8637;BME280;4356;49.068;8.658;2023-03-16T04:35:29;100200.53;;;15.51;36.77
8637;BME280;4356;49.068;8.658;2023-03-16T04:37:56;100199.31;;;15.54;36.79
8637;BME280;4356;49.068;8.658;2023-03-16T04:40:22;100191.75;;;15.49;36.57
8637;BME280;4356;49.068;8.658;2023-03-16T04:42:48;100185.72;;;15.47;36.41
8637;BME280;4356;49.068;8.658;2023-03-16T04:45:14;100195.75;;;15.53;36.74
8637;BME280;4356;49.068;8.658;2023-03-16T04:47:40;100192.59;;;15.50;36.20
8637;BME280;4356;49.068;8.658;2023-03-16T04:50:07;100194.09;;;15.52;36.69
8637;BME280;4356;49.068;8.658;2023-03-16T04:52:32;100189.00;;;15.42;36.44
8637;BME280;4356;49.068;8.658;2023-03-16T04:54:58;100175.38;;;15.36;36.32
8637;BME280;4356;49.068;8.658;2023-03-16T04:57:24;100185.28;;;15.43;36.66
8637;BME280;4356;49.068;8.658;2023-03-16T04:59:49;100201.75;;;15.49;36.61
8637;BME280;4356;49.068;8.658;2023-03-16T05:02:16;100195.31;;;15.50;36.51
8637;BME280;4356;49.068;8.658;2023-03-16T05:04:43;100181.91;;;15.41;36.57
8637;BME280;4356;49.068;8.658;2023-03-16T05:07:09;100193.63;;;15.49;36.41
8637;BME280;4356;49.068;8.658;2023-03-16T05:09:35;100198.22;;;15.48;36.68
8637;BME280;4356;49.068;8.658;2023-03-16T05:12:01;100179.44;;;15.47;36.62
8637;BME280;4356;49.068;8.658;2023-03-16T05:14:27;100186.72;;;15.46;36.15
8637;BME280;4356;49.068;8.658;2023-03-16T05:16:52;100186.94;;;15.44;36.48
8637;BME280;4356;49.068;8.658;2023-03-16T05:19:18;100187.38;;;15.48;36.50
8637;BME280;4356;49.068;8.658;2023-03-16T05:21:44;100193.63;;;15.49;36.61
8637;BME280;4356;49.068;8.658;2023-03-16T05:24:12;100183.00;;;15.47;36.61
8637;BME280;4356;49.068;8.658;2023-03-16T05:26:38;100183.00;;;15.47;36.59
8637;BME280;4356;49.068;8.658;2023-03-16T05:29:03;100180.66;;;15.44;36.50
8637;BME280;4356;49.068;8.658;2023-03-16T05:31:30;100177.16;;;15.43;36.26
8637;BME280;4356;49.068;8.658;2023-03-16T05:34:00;100184.03;;;15.46;36.23
8637;BME280;4356;49.068;8.658;2023-03-16T05:36:26;100181.06;;;15.41;36.47
8637;BME280;4356;49.068;8.658;2023-03-16T05:38:52;100168.72;;;15.38;36.16
8637;BME280;4356;49.068;8.658;2023-03-16T05:41:17;100162.84;;;15.35;36.01
8637;BME280;4356;49.068;8.658;2023-03-16T05:43:46;100179.84;;;15.43;36.20
8637;BME280;4356;49.068;8.658;2023-03-16T05:46:11;100177.97;;;15.44;36.23
8637;BME280;4356;49.068;8.658;2023-03-16T05:48:38;100183.38;;;15.44;36.27
8637;BME280;4356;49.068;8.658;2023-03-16T05:51:04;100173.78;;;15.41;36.42
8637;BME280;4356;49.068;8.658;2023-03-16T05:53:33;100168.38;;;15.41;35.90
8637;BME280;4356;49.068;8.658;2023-03-16T05:56:00;100165.66;;;15.41;35.94
8637;BME280;4356;49.068;8.658;2023-03-16T05:58:26;100168.50;;;15.40;36.04
8637;BME280;4356;49.068;8.658;2023-03-16T06:00:52;100167.53;;;15.41;36.05
8637;BME280;4356;49.068;8.658;2023-03-16T06:03:20;100167.13;;;15.44;36.13
8637;BME280;4356;49.068;8.658;2023-03-16T06:05:47;100173.19;;;15.46;35.96
8637;BME280;4356;49.068;8.658;2023-03-16T06:08:12;100166.56;;;15.49;36.12
8637;BME280;4356;49.068;8.658;2023-03-16T06:10:39;100166.16;;;15.52;36.04
8637;BME280;4356;49.068;8.658;2023-03-16T06:13:05;100169.50;;;15.54;35.84
8637;BME280;4356;49.068;8.658;2023-03-16T06:15:31;100170.59;;;15.59;35.71
8637;BME280;4356;49.068;8.658;2023-03-16T06:17:56;100166.66;;;15.62;35.97
8637;BME280;4356;49.068;8.658;2023-03-16T06:20:22;100171.28;;;15.68;35.91
8637;BME280;4356;49.068;8.658;2023-03-16T06:22:48;100168.19;;;15.71;35.84
8637;BME280;4356;49.068;8.658;2023-03-16T06:25:14;100175.50;;;15.77;35.88
8637;BME280;4356;49.068;8.658;2023-03-16T06:27:40;100175.75;;;15.82;35.98
8637;BME280;4356;49.068;8.658;2023-03-16T06:30:08;100168.66;;;15.81;35.88
8637;BME280;4356;49.068;8.658;2023-03-16T06:32:36;100161.13;;;15.76;35.90
8637;BME280;4356;49.068;8.658;2023-03-16T06:35:03;100181.66;;;15.92;35.99
8637;BME280;4356;49.068;8.658;2023-03-16T06:37:29;100179.59;;;15.94;35.99
8637;BME280;4356;49.068;8.658;2023-03-16T06:39:56;100172.94;;;15.96;36.05
8637;BME280;4356;49.068;8.658;2023-03-16T06:42:22;100148.50;;;15.90;36.20
8637;BME280;4356;49.068;8.658;2023-03-16T06:44:49;100147.47;;;15.91;35.92
8637;BME280;4356;49.068;8.658;2023-03-16T06:47:16;100143.94;;;15.90;36.01
8637;BME280;4356;49.068;8.658;2023-03-16T06:49:42;100159.22;;;16.04;36.03
8637;BME280;4356;49.068;8.658;2023-03-16T06:52:08;100174.44;;;16.05;35.94
8637;BME280;4356;49.068;8.658;2023-03-16T06:54:35;100174.06;;;16.08;36.43
8637;BME280;4356;49.068;8.658;2023-03-16T06:57:02;100173.88;;;16.10;36.32
8637;BME280;4356;49.068;8.658;2023-03-16T06:59:28;100175.16;;;16.14;36.35
8637;BME280;4356;49.068;8.658;2023-03-16T07:01:55;100171.19;;;16.16;36.12
8637;BME280;4356;49.068;8.658;2023-03-16T07:04:20;100161.78;;;16.12;36.37
8637;BME280;4356;49.068;8.658;2023-03-16T07:06:47;100171.44;;;16.21;36.52
8637;BME280;4356;49.068;8.658;2023-03-16T07:09:13;100174.59;;;16.25;36.35
8637;BME280;4356;49.068;8.658;2023-03-16T07:11:39;100153.25;;;16.15;36.48
8637;BME280;4356;49.068;8.658;2023-03-16T07:14:04;100180.03;;;16.31;36.59
8637;BME280;4356;49.068;8.658;2023-03-16T07:16:30;100174.81;;;16.30;36.52
8637;BME280;4356;49.068;8.658;2023-03-16T07:18:56;100182.13;;;16.36;36.24
8637;BME280;4356;49.068;8.658;2023-03-16T07:21:22;100173.38;;;16.34;36.54
8637;BME280;4356;49.068;8.658;2023-03-16T07:23:48;100180.69;;;16.40;36.70
8637;BME280;4356;49.068;8.658;2023-03-16T07:26:14;100183.00;;;16.43;36.71
8637;BME280;4356;49.068;8.658;2023-03-16T07:28:40;100185.31;;;16.46;36.62
8637;BME280;4356;49.068;8.658;2023-03-16T07:31:06;100176.34;;;16.45;36.71
8637;BME280;4356;49.068;8.658;2023-03-16T07:33:32;100172.16;;;16.43;36.92
8637;BME280;4356;49.068;8.658;2023-03-16T07:35:59;100160.03;;;16.39;37.03
8637;BME280;4356;49.068;8.658;2023-03-16T07:38:25;100184.34;;;16.54;36.87
8637;BME280;4356;49.068;8.658;2023-03-16T07:40:50;100169.88;;;16.46;36.82
8637;BME280;4356;49.068;8.658;2023-03-16T07:43:16;100161.38;;;16.50;36.89
8637;BME280;4356;49.068;8.658;2023-03-16T07:45:47;100175.59;;;16.58;37.00
8637;BME280;4356;49.068;8.658;2023-03-16T07:48:13;100178.34;;;16.65;37.18
8637;BME280;4356;49.068;8.658;2023-03-16T07:50:39;100176.28;;;16.73;37.28
8637;BME280;4356;49.068;8.658;2023-03-16T07:53:04;100164.19;;;16.76;37.29
8637;BME280;4356;49.068;8.658;2023-03-16T07:55:30;100176.97;;;16.88;37.34
8637;BME280;4356;49.068;8.658;2023-03-16T07:57:56;100162.75;;;16.93;37.37
8637;BME280;4356;49.068;8.658;2023-03-16T08:00:22;100160.06;;;16.99;37.25
8637;BME280;4356;49.068;8.658;2023-03-16T08:02:49;100181.59;;;17.14;37.09
8637;BME280;4356;49.068;8.658;2023-03-16T08:05:15;100182.22;;;17.16;37.03
8637;BME280;4356;49.068;8.658;2023-03-16T08:07:41;100179.09;;;17.19;37.27
8637;BME280;4356;49.068;8.658;2023-03-16T08:10:07;100169.91;;;17.20;36.83
8637;BME280;4356;49.068;8.658;2023-03-16T08:12:33;100174.09;;;17.22;37.40
8637;BME280;4356;49.068;8.658;2023-03-16T08:14:58;100152.78;;;17.13;36.38
8637;BME280;4356;49.068;8.658;2023-03-16T08:17:24;100162.81;;;17.25;37.37
8637;BME280;4356;49.068;8.658;2023-03-16T08:19:50;100156.13;;;17.28;37.48
8637;BME280;4356;49.068;8.658;2023-03-16T08:22:15;100151.34;;;17.30;37.71
8637;BME280;4356;49.068;8.658;2023-03-16T08:24:41;100147.34;;;17.26;37.79
8637;BME280;4356;49.068;8.658;2023-03-16T08:27:07;100155.28;;;17.34;37.40
8637;BME280;4356;49.068;8.658;2023-03-16T08:29:33;100151.94;;;17.32;37.43
8637;BME280;4356;49.068;8.658;2023-03-16T08:31:59;100144.03;;;17.37;37.84
8637;BME280;4356;49.068;8.658;2023-03-16T08:34:26;100144.22;;;17.35;37.86
8637;BME280;4356;49.068;8.658;2023-03-16T08:36:52;100150.09;;;17.39;38.43
8637;BME280;4356;49.068;8.658;2023-03-16T08:39:18;100147.16;;;17.40;38.14
8637;BME280;4356;49.068;8.658;2023-03-16T08:41:45;100158.44;;;17.44;37.97
8637;BME280;4356;49.068;8.658;2023-03-16T08:44:12;100145.06;;;17.42;38.66
8637;BME280;4356;49.068;8.658;2023-03-16T08:46:38;100139.03;;;17.47;38.27
8637;BME280;4356;49.068;8.658;2023-03-16T08:49:04;100157.22;;;17.53;38.13
8637;BME280;4356;49.068;8.658;2023-03-16T08:51:31;100146.13;;;17.55;38.37
8637;BME280;4356;49.068;8.658;2023-03-16T08:53:57;100146.56;;;17.58;38.34
8637;BME280;4356;49.068;8.658;2023-03-16T08:56:24;100113.31;;;17.50;38.95
8637;BME280;4356;49.068;8.658;2023-03-16T08:58:50;100109.75;;;17.49;38.42
8637;BME280;4356;49.068;8.658;2023-03-16T09:01:17;100144.84;;;17.70;38.12
8637;BME280;4356;49.068;8.658;2023-03-16T09:03:44;100137.56;;;17.77;38.38
8637;BME280;4356;49.068;8.658;2023-03-16T09:06:15;100135.22;;;17.87;38.49
8637;BME280;4356;49.068;8.658;2023-03-16T09:08:41;100131.84;;;17.98;39.11
8637;BME280;4356;49.068;8.658;2023-03-16T09:11:14;100126.38;;;18.11;38.99
8637;BME280;4356;49.068;8.658;2023-03-16T09:13:40;100116.72;;;18.22;38.68
8637;BME280;4356;49.068;8.658;2023-03-16T09:16:08;100115.84;;;18.34;38.47
8637;BME280;4356;49.068;8.658;2023-03-16T09:18:34;100117.66;;;18.54;37.95
8637;BME280;4356;49.068;8.658;2023-03-16T09:21:05;100117.16;;;18.70;38.58
8637;BME280;4356;49.068;8.658;2023-03-16T09:23:32;100121.50;;;18.77;37.79
8637;BME280;4356;49.068;8.658;2023-03-16T09:26:01;100127.53;;;18.86;37.60
8637;BME280;4356;49.068;8.658;2023-03-16T09:28:28;100116.03;;;18.84;37.30
8637;BME280;4356;49.068;8.658;2023-03-16T09:30:56;100116.16;;;18.95;37.33
8637;BME280;4356;49.068;8.658;2023-03-16T09:33:24;100129.91;;;19.07;37.62
8637;BME280;4356;49.068;8.658;2023-03-16T09:35:50;100109.19;;;19.06;37.62
8637;BME280;4356;49.068;8.658;2023-03-16T09:38:17;100103.50;;;19.07;36.55
8637;BME280;4356;49.068;8.658;2023-03-16T09:40:45;100107.44;;;19.11;37.67
8637;BME280;4356;49.068;8.658;2023-03-16T09:46:08;100133.25;;;19.09;37.31
8637;BME280;4356;49.068;8.658;2023-03-16T09:48:37;100132.25;;;19.03;35.67
8637;BME280;4356;49.068;8.658;2023-03-16T09:51:07;100126.00;;;18.96;36.89
8637;BME280;4356;49.068;8.658;2023-03-16T09:53:38;100133.72;;;18.99;37.72
8637;BME280;4356;49.068;8.658;2023-03-16T10:06:11;100098.72;;;19.03;37.69
8637;BME280;4356;49.068;8.658;2023-03-16T10:08:44;100095.34;;;19.07;37.61
8637;BME280;4356;49.068;8.658;2023-03-16T10:19:51;100074.25;;;19.21;37.78
8637;BME280;4356;49.068;8.658;2023-03-16T10:22:23;100066.31;;;19.19;37.59
8637;BME280;4356;49.068;8.658;2023-03-16T10:27:28;100081.91;;;19.37;38.21
8637;BME280;4356;49.068;8.658;2023-03-16T10:29:55;100076.44;;;19.37;36.56
8637;BME280;4356;49.068;8.658;2023-03-16T10:32:21;100073.91;;;19.42;37.29
8637;BME280;4356;49.068;8.658;2023-03-16T10:34:58;100051.72;;;19.38;37.48
8637;BME280;4356;49.068;8.658;2023-03-16T10:37:28;100055.16;;;19.52;37.49
8637;BME280;4356;49.068;8.658;2023-03-16T10:39:55;100071.22;;;19.60;36.96
8637;BME280;4356;49.068;8.658;2023-03-16T10:42:23;100051.34;;;19.53;36.41
8637;BME280;4356;49.068;8.658;2023-03-16T10:44:55;100077.44;;;19.67;36.61
8637;BME280;4356;49.068;8.658;2023-03-16T10:47:23;100072.13;;;19.72;36.77
8637;BME280;4356;49.068;8.658;2023-03-16T10:49:52;100077.06;;;19.82;36.40
8637;BME280;4356;49.068;8.658;2023-03-16T10:54:49;100066.94;;;19.89;35.61
8637;BME280;4356;49.068;8.658;2023-03-16T10:57:30;100066.69;;;19.90;35.30
8637;BME280;4356;49.068;8.658;2023-03-16T11:00:12;100051.97;;;19.91;35.03
8637;BME280;4356;49.068;8.658;2023-03-16T11:02:48;100069.34;;;19.97;34.79
8637;BME280;4356;49.068;8.658;2023-03-16T11:10:32;100063.34;;;20.06;33.28
8637;BME280;4356;49.068;8.658;2023-03-16T11:13:14;100050.31;;;20.08;33.07
8637;BME280;4356;49.068;8.658;2023-03-16T11:18:54;100028.03;;;20.11;32.34
8637;BME280;4356;49.068;8.658;2023-03-16T11:23:54;100030.72;;;20.18;31.84
8637;BME280;4356;49.068;8.658;2023-03-16T11:26:30;100027.75;;;20.19;31.42
8637;BME280;4356;49.068;8.658;2023-03-16T11:29:18;100030.50;;;20.19;31.50
8637;BME280;4356;49.068;8.658;2023-03-16T11:32:00;100030.50;;;20.19;31.13
8637;BME280;4356;49.068;8.658;2023-03-16T11:34:30;100023.34;;;20.18;31.50
8637;BME280;4356;49.068;8.658;2023-03-16T11:42:22;100016.59;;;20.21;31.23
8637;BME280;4356;49.068;8.658;2023-03-16T11:48:05;100022.81;;;20.28;31.03
8637;BME280;4356;49.068;8.658;2023-03-16T11:51:09;100013.34;;;20.30;30.81
8637;BME280;4356;49.068;8.658;2023-03-16T11:54:15;100003.03;;;20.32;31.16
8637;BME280;4356;49.068;8.658;2023-03-16T11:56:52;100002.19;;;20.32;31.02
8637;BME280;4356;49.068;8.658;2023-03-16T12:02:43;99991.63;;;20.35;30.79
8637;BME280;4356;49.068;8.658;2023-03-16T12:08:18;99986.91;;;20.42;30.52
8637;BME280;4356;49.068;8.658;2023-03-16T12:16:30;99975.44;;;20.52;30.90
8637;BME280;4356;49.068;8.658;2023-03-16T12:19:05;99974.13;;;20.55;31.21
8637;BME280;4356;49.068;8.658;2023-03-16T12:21:40;99957.72;;;20.55;31.07
8637;BME280;4356;49.068;8.658;2023-03-16T12:24:14;99965.00;;;20.61;29.03
8637;BME280;4356;49.068;8.658;2023-03-16T12:26:41;99972.38;;;20.72;30.13
8637;BME280;4356;49.068;8.658;2023-03-16T12:31:54;99952.34;;;20.78;30.75
8637;BME280;4356;49.068;8.658;2023-03-16T12:34:43;99941.66;;;20.76;30.17
8637;BME280;4356;49.068;8.658;2023-03-16T12:43:07;99954.69;;;20.86;30.19
8637;BME280;4356;49.068;8.658;2023-03-16T12:45:55;99939.41;;;20.85;30.64
8637;BME280;4356;49.068;8.658;2023-03-16T12:48:30;99935.34;;;20.87;30.48
8637;BME280;4356;49.068;8.658;2023-03-16T12:50:59;99945.56;;;20.92;31.28
8637;BME280;4356;49.068;8.658;2023-03-16T12:56:35;99944.44;;;20.99;31.03
8637;BME280;4356;49.068;8.658;2023-03-16T12:59:15;99937.25;;;20.98;30.37
8637;BME280;4356;49.068;8.658;2023-03-16T13:01:44;99925.91;;;21.01;30.13
8637;BME280;4356;49.068;8.658;2023-03-16T13:04:19;99927.06;;;21.05;30.10
8637;BME280;4356;49.068;8.658;2023-03-16T13:06:50;99921.94;;;21.09;30.08
8637;BME280;4356;49.068;8.658;2023-03-16T13:09:27;99922.34;;;21.12;28.67
8637;BME280;4356;49.068;8.658;2023-03-16T13:11:56;99919.47;;;21.07;30.13
8637;BME280;4356;49.068;8.658;2023-03-16T13:14:37;99917.78;;;21.18;30.43
8637;BME280;4356;49.068;8.658;2023-03-16T13:22:47;99901.84;;;21.38;27.46
8637;BME280;4356;49.068;8.658;2023-03-16T13:27:55;99897.09;;;21.33;28.54
8637;BME280;4356;49.068;8.658;2023-03-16T13:30:29;99899.59;;;21.35;27.96
8637;BME280;4356;49.068;8.658;2023-03-16T13:33:14;99894.97;;;21.35;29.39
8637;BME280;4356;49.068;8.658;2023-03-16T13:35:42;99885.34;;;21.33;28.26
8637;BME280;4356;49.068;8.658;2023-03-16T13:38:14;99887.13;;;21.39;27.73
8637;BME280;4356;49.068;8.658;2023-03-16T13:40:51;99894.22;;;21.40;28.67
8637;BME280;4356;49.068;8.658;2023-03-16T13:43:28;99887.72;;;21.41;28.03
8637;BME280;4356;49.068;8.658;2023-03-16T13:45:55;99885.56;;;21.43;27.09
8637;BME280;4356;49.068;8.658;2023-03-16T13:48:21;99878.41;;;21.42;26.84
8637;BME280;4356;49.068;8.658;2023-03-16T13:50:54;99887.22;;;21.44;27.30
8637;BME280;4356;49.068;8.658;2023-03-16T13:53:30;99875.94;;;21.40;27.54
8637;BME280;4356;49.068;8.658;2023-03-16T13:55:59;99876.03;;;21.45;28.09
8637;BME280;4356;49.068;8.658;2023-03-16T13:58:32;99877.47;;;21.48;27.60
8637;BME280;4356;49.068;8.658;2023-03-16T14:01:01;99860.47;;;21.46;28.27
8637;BME280;4356;49.068;8.658;2023-03-16T14:03:37;99866.88;;;21.52;28.25
8637;BME280;4356;49.068;8.658;2023-03-16T14:06:04;99861.75;;;21.55;28.49
8637;BME280;4356;49.068;8.658;2023-03-16T14:08:31;99841.75;;;21.55;28.32
8637;BME280;4356;49.068;8.658;2023-03-16T14:10:58;99841.06;;;21.59;27.74
8637;BME280;4356;49.068;8.658;2023-03-16T14:13:31;99828.44;;;21.58;27.85
8637;BME280;4356;49.068;8.658;2023-03-16T14:16:16;99830.78;;;21.66;27.84
8637;BME280;4356;49.068;8.658;2023-03-16T14:18:50;99831.84;;;21.65;27.82
8637;BME280;4356;49.068;8.658;2023-03-16T14:21:26;99830.28;;;21.69;27.92
8637;BME280;4356;49.068;8.658;2023-03-16T14:23:58;99814.88;;;21.63;27.50
8637;BME280;4356;49.068;8.658;2023-03-16T14:26:26;99835.63;;;21.76;27.57
8637;BME280;4356;49.068;8.658;2023-03-16T14:29:01;99829.31;;;21.75;27.59
8637;BME280;4356;49.068;8.658;2023-03-16T14:31:32;99824.44;;;21.77;27.43
8637;BME280;4356;49.068;8.658;2023-03-16T14:34:00;99826.72;;;21.80;27.77
8637;BME280;4356;49.068;8.658;2023-03-16T14:36:34;99819.59;;;21.79;27.75
8637;BME280;4356;49.068;8.658;2023-03-16T14:39:10;99822.50;;;21.78;27.79
8637;BME280;4356;49.068;8.658;2023-03-16T14:41:36;99814.94;;;21.80;27.19
8637;BME280;4356;49.068;8.658;2023-03-16T14:44:03;99804.38;;;21.72;27.82
8637;BME280;4356;49.068;8.658;2023-03-16T14:46:30;99818.59;;;21.85;27.80
8637;BME280;4356;49.068;8.658;2023-03-16T14:51:35;99798.31;;;21.81;27.74